sensor_id;sensor_type;location;lat;lon;timestamp;pressure;altitude;pressure_sealevel;temperature;humidity
52927;BME280;40783;49.710;8.842;2023-03-03T00:01:24;99376.75;;;0.99;93.02
52927;BME280;40783;49.710;8.842;2023-03-03T00:03:52;99376.56;;;1.02;92.12
52927;BME280;40783;49.710;8.842;2023-03-03T00:06:22;99390.69;;;1.01;92.35
52927;BME280;40783;49.710;8.842;2023-03-03T00:08:49;99388.94;;;0.86;93.68
52927;BME280;40783;49.710;8.842;2023-03-03T00:11:19;99382.47;;;0.14;96.89
52927;BME280;40783;49.710;8.842;2023-03-03T00:16:31;99387.66;;;0.16;99.32
52927;BME280;40783;49.710;8.842;2023-03-03T00:18:59;99388.63;;;0.29;97.85
52927;BME280;40783;49.710;8.842;2023-03-03T00:21:30;99384.47;;;0.41;96.82
52927;BME280;40783;49.710;8.842;2023-03-03T00:24:18;99400.38;;;0.24;97.02
52927;BME280;40783;49.710;8.842;2023-03-03T00:26:53;99390.88;;;0.21;97.28
52927;BME280;40783;49.710;8.842;2023-03-03T00:29:35;99401.03;;;0.43;96.36
52927;BME280;40783;49.710;8.842;2023-03-03T00:34:43;99392.03;;;0.48;95.00
52927;BME280;40783;49.710;8.842;2023-03-03T00:37:28;99397.28;;;0.48;96.01
52927;BME280;40783;49.710;8.842;2023-03-03T00:40:20;99395.28;;;0.21;97.44
52927;BME280;40783;49.710;8.842;2023-03-03T00:42:50;99401.97;;;0.10;98.24
52927;BME280;40783;49.710;8.842;2023-03-03T00:45:36;99404.34;;;0.31;97.02
52927;BME280;40783;49.710;8.842;2023-03-03T00:48:24;99404.06;;;0.52;95.30
52927;BME280;40783;49.710;8.842;2023-03-03T00:50:59;99405.13;;;0.33;95.97
52927;BME280;40783;49.710;8.842;2023-03-03T00:53:29;99408.34;;;0.38;95.85
52927;BME280;40783;49.710;8.842;2023-03-03T00:55:57;99415.88;;;0.44;95.10
52927;BME280;40783;49.710;8.842;2023-03-03T00:58:23;99414.59;;;0.36;94.87
52927;BME280;40783;49.710;8.842;2023-03-03T01:00:51;99417.06;;;0.39;95.25
52927;BME280;40783;49.710;8.842;2023-03-03T01:03:22;99411.31;;;0.32;95.23
52927;BME280;40783;49.710;8.842;2023-03-03T01:05:49;99419.22;;;0.16;96.90
52927;BME280;40783;49.710;8.842;2023-03-03T01:08:15;99417.84;;;0.25;95.82
52927;BME280;40783;49.710;8.842;2023-03-03T01:10:47;99417.50;;;0.31;94.89
52927;BME280;40783;49.710;8.842;2023-03-03T01:13:17;99427.69;;;0.37;94.24
52927;BME280;40783;49.710;8.842;2023-03-03T01:15:42;99418.53;;;0.12;95.30
52927;BME280;40783;49.710;8.842;2023-03-03T01:18:09;99422.06;;;-0.21;97.43
52927;BME280;40783;49.710;8.842;2023-03-03T01:20:34;99427.69;;;-0.11;97.58
52927;BME280;40783;49.710;8.842;2023-03-03T01:23:03;99419.38;;;-0.03;97.59
52927;BME280;40783;49.710;8.842;2023-03-03T01:25:28;99418.19;;;-0.13;97.34
52927;BME280;40783;49.710;8.842;2023-03-03T01:27:54;99419.00;;;-0.29;97.95
52927;BME280;40783;49.710;8.842;2023-03-03T01:30:19;99421.75;;;-0.14;97.94
52927;BME280;40783;49.710;8.842;2023-03-03T01:32:47;99409.69;;;-0.19;97.19
52927;BME280;40783;49.710;8.842;2023-03-03T01:35:13;99415.22;;;0.09;95.81
52927;BME280;40783;49.710;8.842;2023-03-03T01:37:40;99408.34;;;0.06;95.48
52927;BME280;40783;49.710;8.842;2023-03-03T01:40:11;99413.78;;;0.19;94.36
52927;BME280;40783;49.710;8.842;2023-03-03T01:42:37;99411.91;;;0.05;94.28
52927;BME280;40783;49.710;8.842;2023-03-03T01:45:12;99409.53;;;0.17;94.62
52927;BME280;40783;49.710;8.842;2023-03-03T01:47:42;99407.66;;;0.19;94.26
52927;BME280;40783;49.710;8.842;2023-03-03T01:50:19;99406.56;;;0.23;93.60
52927;BME280;40783;49.710;8.842;2023-03-03T01:52:49;99413.44;;;0.09;93.70
52927;BME280;40783;49.710;8.842;2023-03-03T01:55:19;99402.91;;;0.09;93.78
52927;BME280;40783;49.710;8.842;2023-03-03T01:57:55;99400.63;;;0.03;94.19
52927;BME280;40783;49.710;8.842;2023-03-03T02:00:22;99410.38;;;0.01;93.87
52927;BME280;40783;49.710;8.842;2023-03-03T02:02:47;99401.38;;;0.05;93.14
52927;BME280;40783;49.710;8.842;2023-03-03T02:05:14;99405.47;;;0.11;93.16
52927;BME280;40783;49.710;8.842;2023-03-03T02:07:43;99399.19;;;0.13;92.80
52927;BME280;40783;49.710;8.842;2023-03-03T02:10:17;99391.88;;;0.19;92.45
52927;BME280;40783;49.710;8.842;2023-03-03T02:12:54;99395.44;;;0.18;92.30
52927;BME280;40783;49.710;8.842;2023-03-03T02:17:47;99395.44;;;0.18;91.83
52927;BME280;40783;49.710;8.842;2023-03-03T02:20:31;99397.16;;;0.19;92.08
52927;BME280;40783;49.710;8.842;2023-03-03T02:25:58;99395.63;;;-0.02;92.56
52927;BME280;40783;49.710;8.842;2023-03-03T02:28:29;99396.81;;;-0.07;93.48
52927;BME280;40783;49.710;8.842;2023-03-03T02:30:57;99402.09;;;-0.07;93.32
52927;BME280;40783;49.710;8.842;2023-03-03T02:33:26;99401.22;;;-0.24;93.42
52927;BME280;40783;49.710;8.842;2023-03-03T02:35:53;99398.63;;;-0.41;93.81
52927;BME280;40783;49.710;8.842;2023-03-03T02:41:06;99402.69;;;-0.52;95.53
52927;BME280;40783;49.710;8.842;2023-03-03T02:46:10;99400.00;;;-0.34;93.61
52927;BME280;40783;49.710;8.842;2023-03-03T02:48:36;99405.25;;;-0.34;94.27
52927;BME280;40783;49.710;8.842;2023-03-03T02:51:01;99420.72;;;-0.28;94.04
52927;BME280;40783;49.710;8.842;2023-03-03T02:53:30;99413.25;;;-0.20;93.12
52927;BME280;40783;49.710;8.842;2023-03-03T02:55:55;99416.13;;;-0.24;92.49
52927;BME280;40783;49.710;8.842;2023-03-03T02:58:20;99394.91;;;-0.37;93.08
52927;BME280;40783;49.710;8.842;2023-03-03T03:00:46;99398.13;;;-0.48;93.45
52927;BME280;40783;49.710;8.842;2023-03-03T03:03:14;99397.25;;;-0.49;94.45
52927;BME280;40783;49.710;8.842;2023-03-03T03:05:41;99402.56;;;-0.33;93.73
52927;BME280;40783;49.710;8.842;2023-03-03T03:08:07;99401.53;;;-0.30;92.58
52927;BME280;40783;49.710;8.842;2023-03-03T03:10:32;99406.63;;;-0.27;92.52
52927;BME280;40783;49.710;8.842;2023-03-03T03:12:58;99407.41;;;-0.25;91.81
52927;BME280;40783;49.710;8.842;2023-03-03T03:15:23;99419.34;;;-0.35;91.97
52927;BME280;40783;49.710;8.842;2023-03-03T03:17:48;99411.34;;;-0.50;93.14
52927;BME280;40783;49.710;8.842;2023-03-03T03:20:14;99411.56;;;-0.37;92.68
52927;BME280;40783;49.710;8.842;2023-03-03T03:22:40;99414.78;;;-0.32;92.04
52927;BME280;40783;49.710;8.842;2023-03-03T03:25:05;99413.91;;;-0.32;91.97
52927;BME280;40783;49.710;8.842;2023-03-03T03:27:31;99423.44;;;-0.29;91.95
52927;BME280;40783;49.710;8.842;2023-03-03T03:29:58;99408.66;;;-0.32;91.77
52927;BME280;40783;49.710;8.842;2023-03-03T03:32:26;99408.59;;;-0.64;92.79
52927;BME280;40783;49.710;8.842;2023-03-03T03:34:51;99413.81;;;-0.80;94.22
52927;BME280;40783;49.710;8.842;2023-03-03T03:37:16;99419.44;;;-0.70;94.36
52927;BME280;40783;49.710;8.842;2023-03-03T03:39:44;99409.63;;;-0.51;93.29
52927;BME280;40783;49.710;8.842;2023-03-03T03:42:12;99414.22;;;-0.54;92.74
52927;BME280;40783;49.710;8.842;2023-03-03T03:44:37;99415.91;;;-0.53;92.76
52927;BME280;40783;49.710;8.842;2023-03-03T03:47:05;99413.16;;;-0.68;93.31
52927;BME280;40783;49.710;8.842;2023-03-03T03:49:33;99411.41;;;-0.67;93.32
52927;BME280;40783;49.710;8.842;2023-03-03T03:51:58;99419.59;;;-0.73;93.88
52927;BME280;40783;49.710;8.842;2023-03-03T03:54:26;99418.56;;;-0.71;93.51
52927;BME280;40783;49.710;8.842;2023-03-03T03:56:59;99420.31;;;-1.05;95.71
52927;BME280;40783;49.710;8.842;2023-03-03T03:59:26;99415.28;;;-0.92;94.93
52927;BME280;40783;49.710;8.842;2023-03-03T04:01:51;99414.75;;;-0.99;95.85
52927;BME280;40783;49.710;8.842;2023-03-03T04:04:17;99407.09;;;-0.86;94.23
52927;BME280;40783;49.710;8.842;2023-03-03T04:06:42;99411.63;;;-0.72;93.89
52927;BME280;40783;49.710;8.842;2023-03-03T04:09:10;99409.28;;;-1.12;95.99
52927;BME280;40783;49.710;8.842;2023-03-03T04:11:35;99413.03;;;-0.82;94.71
52927;BME280;40783;49.710;8.842;2023-03-03T04:14:03;99409.81;;;-0.87;94.22
52927;BME280;40783;49.710;8.842;2023-03-03T04:16:28;99415.59;;;-0.98;94.95
52927;BME280;40783;49.710;8.842;2023-03-03T04:18:53;99427.47;;;-0.91;94.28
52927;BME280;40783;49.710;8.842;2023-03-03T04:21:21;99427.00;;;-0.82;93.60
52927;BME280;40783;49.710;8.842;2023-03-03T04:23:46;99428.88;;;-0.84;93.69
52927;BME280;40783;49.710;8.842;2023-03-03T04:26:11;99426.56;;;-1.08;94.01
52927;BME280;40783;49.710;8.842;2023-03-03T04:28:37;99421.84;;;-1.01;94.60
52927;BME280;40783;49.710;8.842;2023-03-03T04:31:05;99422.16;;;-1.07;94.72
52927;BME280;40783;49.710;8.842;2023-03-03T04:33:32;99431.97;;;-1.11;94.37
52927;BME280;40783;49.710;8.842;2023-03-03T04:35:58;99439.63;;;-1.06;95.53
52927;BME280;40783;49.710;8.842;2023-03-03T04:38:23;99433.19;;;-1.00;94.28
52927;BME280;40783;49.710;8.842;2023-03-03T04:40:49;99442.41;;;-0.92;93.37
52927;BME280;40783;49.710;8.842;2023-03-03T04:43:14;99433.53;;;-1.07;94.01
52927;BME280;40783;49.710;8.842;2023-03-03T04:45:39;99440.44;;;-1.06;93.47
52927;BME280;40783;49.710;8.842;2023-03-03T04:48:05;99435.38;;;-1.09;93.62
52927;BME280;40783;49.710;8.842;2023-03-03T04:50:33;99431.34;;;-0.98;93.48
52927;BME280;40783;49.710;8.842;2023-03-03T04:52:59;99444.78;;;-1.05;95.16
52927;BME280;40783;49.710;8.842;2023-03-03T04:55:24;99437.44;;;-1.15;94.23
52927;BME280;40783;49.710;8.842;2023-03-03T04:57:52;99448.34;;;-1.23;94.52
52927;BME280;40783;49.710;8.842;2023-03-03T05:00:18;99444.47;;;-1.16;94.88
52927;BME280;40783;49.710;8.842;2023-03-03T05:02:46;99446.34;;;-1.18;94.35
52927;BME280;40783;49.710;8.842;2023-03-03T05:05:14;99451.28;;;-1.12;93.52
52927;BME280;40783;49.710;8.842;2023-03-03T05:07:40;99461.28;;;-1.38;95.11
52927;BME280;40783;49.710;8.842;2023-03-03T05:10:10;99466.00;;;-1.63;96.76
52927;BME280;40783;49.710;8.842;2023-03-03T05:12:36;99465.59;;;-1.92;99.05
52927;BME280;40783;49.710;8.842;2023-03-03T05:15:04;99469.41;;;-1.61;97.90
52927;BME280;40783;49.710;8.842;2023-03-03T05:17:32;99466.47;;;-1.92;100.00
52927;BME280;40783;49.710;8.842;2023-03-03T05:20:00;99461.69;;;-2.03;100.00
52927;BME280;40783;49.710;8.842;2023-03-03T05:22:25;99465.81;;;-1.78;99.89
52927;BME280;40783;49.710;8.842;2023-03-03T05:24:56;99473.09;;;-1.66;100.00
52927;BME280;40783;49.710;8.842;2023-03-03T05:27:24;99474.09;;;-1.68;99.20
52927;BME280;40783;49.710;8.842;2023-03-03T05:29:49;99473.53;;;-1.75;99.47
52927;BME280;40783;49.710;8.842;2023-03-03T05:32:15;99468.16;;;-1.72;99.46
52927;BME280;40783;49.710;8.842;2023-03-03T05:34:42;99460.19;;;-1.70;99.50
52927;BME280;40783;49.710;8.842;2023-03-03T05:37:08;99457.09;;;-1.59;98.48
52927;BME280;40783;49.710;8.842;2023-03-03T05:39:33;99456.25;;;-1.79;100.00
52927;BME280;40783;49.710;8.842;2023-03-03T05:42:01;99463.19;;;-1.78;100.00
52927;BME280;40783;49.710;8.842;2023-03-03T05:44:32;99456.09;;;-1.76;99.20
52927;BME280;40783;49.710;8.842;2023-03-03T05:46:57;99457.63;;;-1.53;97.70
52927;BME280;40783;49.710;8.842;2023-03-03T05:49:24;99459.56;;;-1.39;96.53
52927;BME280;40783;49.710;8.842;2023-03-03T05:51:49;99450.19;;;-1.25;95.03
52927;BME280;40783;49.710;8.842;2023-03-03T05:54:14;99453.41;;;-1.38;95.05
52927;BME280;40783;49.710;8.842;2023-03-03T05:56:39;99452.31;;;-1.33;95.14
52927;BME280;40783;49.710;8.842;2023-03-03T05:59:07;99460.81;;;-1.28;94.22
52927;BME280;40783;49.710;8.842;2023-03-03T06:01:35;99459.56;;;-1.39;95.07
52927;BME280;40783;49.710;8.842;2023-03-03T06:04:02;99464.03;;;-1.41;95.60
52927;BME280;40783;49.710;8.842;2023-03-03T06:06:27;99464.53;;;-1.32;94.60
52927;BME280;40783;49.710;8.842;2023-03-03T06:08:53;99468.38;;;-1.40;95.08
52927;BME280;40783;49.710;8.842;2023-03-03T06:11:18;99464.53;;;-1.32;94.76
52927;BME280;40783;49.710;8.842;2023-03-03T06:13:43;99469.47;;;-1.26;93.91
52927;BME280;40783;49.710;8.842;2023-03-03T06:16:09;99469.78;;;-1.32;93.95
52927;BME280;40783;49.710;8.842;2023-03-03T06:18:34;99485.22;;;-1.26;93.75
52927;BME280;40783;49.710;8.842;2023-03-03T06:21:02;99483.66;;;-1.30;94.08
52927;BME280;40783;49.710;8.842;2023-03-03T06:23:27;99487.84;;;-1.26;93.81
52927;BME280;40783;49.710;8.842;2023-03-03T06:25:53;99499.25;;;-1.27;94.26
52927;BME280;40783;49.710;8.842;2023-03-03T06:28:18;99506.78;;;-1.39;95.34
52927;BME280;40783;49.710;8.842;2023-03-03T06:30:46;99513.75;;;-1.38;95.32
52927;BME280;40783;49.710;8.842;2023-03-03T06:33:13;99513.88;;;-1.41;95.83
52927;BME280;40783;49.710;8.842;2023-03-03T06:35:40;99520.41;;;-1.30;95.34
52927;BME280;40783;49.710;8.842;2023-03-03T06:38:06;99502.47;;;-1.40;96.55
52927;BME280;40783;49.710;8.842;2023-03-03T06:40:31;99507.25;;;-1.86;99.38
52927;BME280;40783;49.710;8.842;2023-03-03T06:42:58;99526.88;;;-1.76;100.00
52927;BME280;40783;49.710;8.842;2023-03-03T06:45:29;99521.69;;;-1.77;100.00
52927;BME280;40783;49.710;8.842;2023-03-03T06:47:55;99514.34;;;-1.88;100.00
52927;BME280;40783;49.710;8.842;2023-03-03T06:50:20;99520.63;;;-1.92;100.00
52927;BME280;40783;49.710;8.842;2023-03-03T06:52:45;99514.19;;;-1.66;100.00
52927;BME280;40783;49.710;8.842;2023-03-03T06:55:19;99522.16;;;-1.68;100.00
52927;BME280;40783;49.710;8.842;2023-03-03T06:57:45;99534.66;;;-1.55;100.00
52927;BME280;40783;49.710;8.842;2023-03-03T07:00:37;99528.22;;;-1.48;100.00
52927;BME280;40783;49.710;8.842;2023-03-03T07:03:15;99527.63;;;-1.36;100.00
52927;BME280;40783;49.710;8.842;2023-03-03T07:05:41;99538.38;;;-1.23;100.00
52927;BME280;40783;49.710;8.842;2023-03-03T07:08:17;99541.25;;;-1.27;100.00
52927;BME280;40783;49.710;8.842;2023-03-03T07:10:48;99534.44;;;-1.31;100.00
52927;BME280;40783;49.710;8.842;2023-03-03T07:15:39;99541.22;;;-1.08;99.66
52927;BME280;40783;49.710;8.842;2023-03-03T07:18:20;99539.34;;;-1.06;100.00
52927;BME280;40783;49.710;8.842;2023-03-03T07:20:49;99538.03;;;-1.15;100.00
52927;BME280;40783;49.710;8.842;2023-03-03T07:25:45;99555.41;;;-1.12;100.00
52927;BME280;40783;49.710;8.842;2023-03-03T07:30:41;99555.88;;;-1.41;100.00
52927;BME280;40783;49.710;8.842;2023-03-03T07:33:34;99556.94;;;-1.45;100.00
52927;BME280;40783;49.710;8.842;2023-03-03T07:36:02;99564.78;;;-1.45;100.00
52927;BME280;40783;49.710;8.842;2023-03-03T07:38:40;99569.63;;;-1.55;100.00
52927;BME280;40783;49.710;8.842;2023-03-03T07:41:16;99577.00;;;-1.44;100.00
52927;BME280;40783;49.710;8.842;2023-03-03T07:43:51;99579.13;;;-1.33;100.00
52927;BME280;40783;49.710;8.842;2023-03-03T07:46:41;99585.19;;;-1.13;100.00
52927;BME280;40783;49.710;8.842;2023-03-03T07:51:55;99593.81;;;-0.92;100.00
52927;BME280;40783;49.710;8.842;2023-03-03T07:54:30;99602.16;;;-0.84;100.00
52927;BME280;40783;49.710;8.842;2023-03-03T07:57:20;99607.56;;;-0.87;100.00
52927;BME280;40783;49.710;8.842;2023-03-03T07:59:59;99606.88;;;-0.73;100.00
52927;BME280;40783;49.710;8.842;2023-03-03T08:02:46;99617.88;;;-0.65;100.00
52927;BME280;40783;49.710;8.842;2023-03-03T08:05:41;99624.16;;;-0.50;100.00
52927;BME280;40783;49.710;8.842;2023-03-03T08:08:30;99626.47;;;-0.43;100.00
52927;BME280;40783;49.710;8.842;2023-03-03T08:10:59;99622.94;;;-0.07;100.00
52927;BME280;40783;49.710;8.842;2023-03-03T08:21:02;99611.47;;;-0.06;100.00
52927;BME280;40783;49.710;8.842;2023-03-03T08:23:29;99621.50;;;0.03;100.00
52927;BME280;40783;49.710;8.842;2023-03-03T08:25:56;99622.63;;;-0.01;100.00
52927;BME280;40783;49.710;8.842;2023-03-03T08:28:24;99620.16;;;-0.04;100.00
52927;BME280;40783;49.710;8.842;2023-03-03T08:30:52;99637.78;;;-0.24;100.00
52927;BME280;40783;49.710;8.842;2023-03-03T08:33:19;99642.84;;;-0.38;100.00
52927;BME280;40783;49.710;8.842;2023-03-03T08:35:45;99642.69;;;-0.53;100.00
52927;BME280;40783;49.710;8.842;2023-03-03T08:38:13;99648.28;;;-0.24;100.00
52927;BME280;40783;49.710;8.842;2023-03-03T08:40:38;99656.41;;;-0.28;100.00
52927;BME280;40783;49.710;8.842;2023-03-03T08:43:06;99654.00;;;-0.33;100.00
52927;BME280;40783;49.710;8.842;2023-03-03T08:45:32;99648.75;;;-0.33;100.00
52927;BME280;40783;49.710;8.842;2023-03-03T08:48:00;99645.66;;;-0.24;100.00
52927;BME280;40783;49.710;8.842;2023-03-03T08:50:28;99636.28;;;-0.12;100.00
52927;BME280;40783;49.710;8.842;2023-03-03T08:52:56;99646.91;;;-0.13;100.00
52927;BME280;40783;49.710;8.842;2023-03-03T08:55:22;99640.47;;;-0.25;100.00
52927;BME280;40783;49.710;8.842;2023-03-03T08:57:47;99632.81;;;-0.12;100.00
52927;BME280;40783;49.710;8.842;2023-03-03T09:00:17;99640.94;;;-0.35;100.00
52927;BME280;40783;49.710;8.842;2023-03-03T09:02:43;99642.88;;;-0.21;100.00
52927;BME280;40783;49.710;8.842;2023-03-03T09:05:11;99636.06;;;-0.07;100.00
52927;BME280;40783;49.710;8.842;2023-03-03T09:07:39;99632.78;;;0.05;100.00
52927;BME280;40783;49.710;8.842;2023-03-03T09:10:08;99626.19;;;-0.02;100.00
52927;BME280;40783;49.710;8.842;2023-03-03T09:12:38;99632.00;;;0.21;100.00
52927;BME280;40783;49.710;8.842;2023-03-03T09:18:12;99630.16;;;0.23;100.00
52927;BME280;40783;49.710;8.842;2023-03-03T09:20:44;99636.34;;;0.22;100.00
52927;BME280;40783;49.710;8.842;2023-03-03T09:23:35;99645.44;;;0.32;100.00
52927;BME280;40783;49.710;8.842;2023-03-03T09:31:38;99645.13;;;0.38;100.00
52927;BME280;40783;49.710;8.842;2023-03-03T09:34:17;99656.88;;;0.49;100.00
52927;BME280;40783;49.710;8.842;2023-03-03T09:36:43;99650.50;;;0.53;100.00
52927;BME280;40783;49.710;8.842;2023-03-03T09:41:53;99644.50;;;0.83;100.00
52927;BME280;40783;49.710;8.842;2023-03-03T09:44:56;99644.78;;;0.94;100.00
52927;BME280;40783;49.710;8.842;2023-03-03T09:50:17;99656.19;;;0.61;100.00
52927;BME280;40783;49.710;8.842;2023-03-03T10:00:40;99656.59;;;0.87;100.00
52927;BME280;40783;49.710;8.842;2023-03-03T10:11:14;99647.56;;;1.23;100.00
52927;BME280;40783;49.710;8.842;2023-03-03T10:13:58;99646.38;;;1.29;100.00
52927;BME280;40783;49.710;8.842;2023-03-03T10:21:49;99648.09;;;1.60;100.00
52927;BME280;40783;49.710;8.842;2023-03-03T10:24:29;99649.19;;;1.72;100.00
52927;BME280;40783;49.710;8.842;2023-03-03T10:33:07;99641.63;;;1.97;100.00
52927;BME280;40783;49.710;8.842;2023-03-03T10:38:45;99641.47;;;2.29;100.00
52927;BME280;40783;49.710;8.842;2023-03-03T10:50:06;99647.69;;;2.57;100.00
52927;BME280;40783;49.710;8.842;2023-03-03T10:52:45;99656.94;;;2.64;100.00
52927;BME280;40783;49.710;8.842;2023-03-03T11:04:22;99659.03;;;3.01;100.00
52927;BME280;40783;49.710;8.842;2023-03-03T11:07:01;99659.53;;;3.07;100.00
52927;BME280;40783;49.710;8.842;2023-03-03T11:09:51;99662.00;;;2.96;100.00
52927;BME280;40783;49.710;8.842;2023-03-03T11:12:27;99655.94;;;3.08;100.00
52927;BME280;40783;49.710;8.842;2023-03-03T11:23:12;99654.66;;;3.29;100.00
52927;BME280;40783;49.710;8.842;2023-03-03T11:28:41;99644.69;;;3.47;100.00
52927;BME280;40783;49.710;8.842;2023-03-03T11:31:45;99650.31;;;3.55;100.00
52927;BME280;40783;49.710;8.842;2023-03-03T11:34:52;99662.09;;;3.77;100.00
52927;BME280;40783;49.710;8.842;2023-03-03T11:37:28;99651.66;;;3.88;100.00
52927;BME280;40783;49.710;8.842;2023-03-03T11:40:06;99655.16;;;4.01;100.00
52927;BME280;40783;49.710;8.842;2023-03-03T11:43:04;99642.47;;;4.07;100.00
52927;BME280;40783;49.710;8.842;2023-03-03T11:48:21;99628.91;;;3.98;100.00
52927;BME280;40783;49.710;8.842;2023-03-03T11:53:30;99622.97;;;4.34;100.00
52927;BME280;40783;49.710;8.842;2023-03-03T11:58:57;99617.91;;;4.30;97.48
52927;BME280;40783;49.710;8.842;2023-03-03T12:01:35;99615.78;;;4.23;97.86
52927;BME280;40783;49.710;8.842;2023-03-03T12:04:06;99596.19;;;4.25;97.73
52927;BME280;40783;49.710;8.842;2023-03-03T12:09:43;99597.31;;;4.60;95.96
52927;BME280;40783;49.710;8.842;2023-03-03T12:12:22;99599.66;;;4.65;94.33
52927;BME280;40783;49.710;8.842;2023-03-03T12:18:19;99597.50;;;4.83;94.43
52927;BME280;40783;49.710;8.842;2023-03-03T12:21:11;99595.75;;;4.95;93.80
52927;BME280;40783;49.710;8.842;2023-03-03T12:29:29;99594.50;;;4.87;91.25
52927;BME280;40783;49.710;8.842;2023-03-03T12:40:25;99586.97;;;5.18;88.96
52927;BME280;40783;49.710;8.842;2023-03-03T12:43:14;99575.28;;;5.21;89.06
52927;BME280;40783;49.710;8.842;2023-03-03T12:45:50;99573.66;;;5.31;88.54
52927;BME280;40783;49.710;8.842;2023-03-03T12:48:37;99571.38;;;5.38;86.61
52927;BME280;40783;49.710;8.842;2023-03-03T12:56:30;99555.47;;;5.38;86.29
52927;BME280;40783;49.710;8.842;2023-03-03T12:59:24;99549.75;;;5.56;85.81
52927;BME280;40783;49.710;8.842;2023-03-03T13:04:43;99543.78;;;5.76;85.32
52927;BME280;40783;49.710;8.842;2023-03-03T13:07:14;99542.06;;;5.75;83.52
52927;BME280;40783;49.710;8.842;2023-03-03T13:09:55;99536.78;;;5.75;83.45
52927;BME280;40783;49.710;8.842;2023-03-03T13:15:12;99535.81;;;5.76;82.21
52927;BME280;40783;49.710;8.842;2023-03-03T13:17:51;99533.88;;;5.90;81.45
52927;BME280;40783;49.710;8.842;2023-03-03T13:23:30;99540.63;;;5.94;81.07
52927;BME280;40783;49.710;8.842;2023-03-03T13:28:45;99539.72;;;6.06;80.69
52927;BME280;40783;49.710;8.842;2023-03-03T13:31:21;99537.53;;;6.00;79.88
52927;BME280;40783;49.710;8.842;2023-03-03T13:33:57;99537.66;;;6.10;79.44
52927;BME280;40783;49.710;8.842;2023-03-03T13:37:13;99531.72;;;5.95;79.19
52927;BME280;40783;49.710;8.842;2023-03-03T13:39:26;99542.00;;;6.00;79.51
52927;BME280;40783;49.710;8.842;2023-03-03T13:42:07;99528.38;;;6.04;78.54
52927;BME280;40783;49.710;8.842;2023-03-03T13:44:41;99518.72;;;6.03;77.34
52927;BME280;40783;49.710;8.842;2023-03-03T13:50:09;99520.06;;;6.09;77.24
52927;BME280;40783;49.710;8.842;2023-03-03T13:55:35;99520.28;;;6.17;75.70
52927;BME280;40783;49.710;8.842;2023-03-03T14:06:54;99497.72;;;6.23;75.82
52927;BME280;40783;49.710;8.842;2023-03-03T14:14:44;99503.00;;;6.46;73.69
52927;BME280;40783;49.710;8.842;2023-03-03T14:17:18;99492.88;;;6.39;75.07
52927;BME280;40783;49.710;8.842;2023-03-03T14:23:11;99492.03;;;6.50;74.07
52927;BME280;40783;49.710;8.842;2023-03-03T14:26:06;99489.00;;;6.44;74.29
52927;BME280;40783;49.710;8.842;2023-03-03T14:28:40;99488.50;;;6.50;74.10
52927;BME280;40783;49.710;8.842;2023-03-03T14:36:41;99479.56;;;6.51;73.37
52927;BME280;40783;49.710;8.842;2023-03-03T14:39:38;99485.50;;;6.55;73.56
52927;BME280;40783;49.710;8.842;2023-03-03T14:42:13;99479.69;;;6.61;74.47
52927;BME280;40783;49.710;8.842;2023-03-03T14:49:38;99482.78;;;6.66;73.68
52927;BME280;40783;49.710;8.842;2023-03-03T14:54:41;99480.00;;;6.67;74.54
52927;BME280;40783;49.710;8.842;2023-03-03T15:00:44;99487.50;;;6.62;73.80
52927;BME280;40783;49.710;8.842;2023-03-03T15:07:57;99492.59;;;6.54;74.13
52927;BME280;40783;49.710;8.842;2023-03-03T15:10:44;99495.50;;;6.51;74.17
52927;BME280;40783;49.710;8.842;2023-03-03T15:15:59;99492.13;;;6.49;74.21
52927;BME280;40783;49.710;8.842;2023-03-03T15:18:27;99503.94;;;6.56;74.45
52927;BME280;40783;49.710;8.842;2023-03-03T15:21:14;99497.56;;;6.59;74.72
52927;BME280;40783;49.710;8.842;2023-03-03T15:31:47;99507.16;;;6.27;76.95
52927;BME280;40783;49.710;8.842;2023-03-03T15:37:41;99499.66;;;6.21;78.43
52927;BME280;40783;49.710;8.842;2023-03-03T15:40:28;99502.31;;;6.21;78.40
52927;BME280;40783;49.710;8.842;2023-03-03T15:43:17;99508.34;;;6.23;78.52
52927;BME280;40783;49.710;8.842;2023-03-03T15:51:49;99506.63;;;5.99;79.10
52927;BME280;40783;49.710;8.842;2023-03-03T15:54:48;99496.84;;;5.88;78.98
52927;BME280;40783;49.710;8.842;2023-03-03T16:10:20;99507.81;;;5.84;78.58
52927;BME280;40783;49.710;8.842;2023-03-03T16:13:22;99506.97;;;5.83;79.13
52927;BME280;40783;49.710;8.842;2023-03-03T16:16:00;99503.81;;;5.78;79.18
52927;BME280;40783;49.710;8.842;2023-03-03T16:24:39;99515.56;;;5.40;79.82
52927;BME280;40783;49.710;8.842;2023-03-03T16:33:21;99524.88;;;5.45;79.60
52927;BME280;40783;49.710;8.842;2023-03-03T16:36:26;99517.59;;;5.36;79.53
52927;BME280;40783;49.710;8.842;2023-03-03T16:41:44;99525.78;;;5.33;77.69
52927;BME280;40783;49.710;8.842;2023-03-03T16:46:45;99528.66;;;5.18;77.31
52927;BME280;40783;49.710;8.842;2023-03-03T16:49:24;99527.19;;;5.14;76.88
52927;BME280;40783;49.710;8.842;2023-03-03T16:52:05;99525.72;;;5.10;76.38
52927;BME280;40783;49.710;8.842;2023-03-03T16:54:41;99539.78;;;4.99;76.12
52927;BME280;40783;49.710;8.842;2023-03-03T16:57:37;99545.63;;;4.92;76.99
52927;BME280;40783;49.710;8.842;2023-03-03T17:00:28;99552.38;;;4.96;76.20
52927;BME280;40783;49.710;8.842;2023-03-03T17:21:58;99571.94;;;4.31;77.59
52927;BME280;40783;49.710;8.842;2023-03-03T17:29:49;99583.19;;;4.09;80.08
52927;BME280;40783;49.710;8.842;2023-03-03T17:43:22;99607.06;;;3.69;88.36
52927;BME280;40783;49.710;8.842;2023-03-03T17:45:53;99612.13;;;3.59;90.28
52927;BME280;40783;49.710;8.842;2023-03-03T17:48:48;99622.72;;;3.59;90.41
52927;BME280;40783;49.710;8.842;2023-03-03T18:03:19;99639.97;;;3.37;90.71
52927;BME280;40783;49.710;8.842;2023-03-03T18:11:24;99639.63;;;3.29;92.81
52927;BME280;40783;49.710;8.842;2023-03-03T18:18:54;99644.22;;;3.13;93.78
52927;BME280;40783;49.710;8.842;2023-03-03T18:21:48;99637.72;;;3.04;93.52
52927;BME280;40783;49.710;8.842;2023-03-03T18:27:32;99641.03;;;3.07;94.99
52927;BME280;40783;49.710;8.842;2023-03-03T18:35:46;99659.34;;;2.96;95.92
52927;BME280;40783;49.710;8.842;2023-03-03T18:49:07;99657.28;;;2.87;95.66
52927;BME280;40783;49.710;8.842;2023-03-03T18:56:49;99671.28;;;2.60;96.29
52927;BME280;40783;49.710;8.842;2023-03-03T19:04:50;99682.41;;;2.50;96.11